Time;durP1;ratioP1;P1;durP2;ratioP2;P2;SDS_P1;SDS_P2;PMS_P1;PMS_P2;Temp;Humidity;BMP_temperature;BMP_pressure;BME280_temperature;BME280_humidity;BME280_pressure;Samples;Min_cycle;Max_cycle;Signal;HPM_P1;HPM_P2
2022/06/21 00:01:19;;;;;;;8.63;4.90;;;14.30;47.00;;;;;;5048442;28;20401;-75
2022/06/21 00:03:46;;;;;;;9.23;5.05;;;14.40;44.80;;;;;;5058965;28;20403;-75
2022/06/21 00:06:13;;;;;;;10.73;5.13;;;14.40;43.40;;;;;;5080368;28;20393;-76
2022/06/21 00:08:39;;;;;;;11.52;5.13;;;14.20;43.10;;;;;;5079446;28;20387;-77
2022/06/21 00:11:17;;;;;;;11.05;5.40;;;14.00;43.80;;;;;;5062145;28;20393;-76
2022/06/21 00:13:43;;;;;;;10.50;5.95;;;13.70;47.00;;;;;;5061259;28;20377;-76
2022/06/21 00:16:13;;;;;;;9.07;5.30;;;13.80;46.30;;;;;;5056572;28;20405;-75
2022/06/21 00:18:40;;;;;;;9.18;5.18;;;13.90;45.20;;;;;;5041889;28;20379;-74
2022/06/21 00:21:19;;;;;;;10.18;5.68;;;13.70;46.40;;;;;;5036027;28;20411;-76
2022/06/21 00:23:47;;;;;;;8.45;5.10;;;13.70;46.00;;;;;;5038049;28;20397;-76
2022/06/21 00:26:14;;;;;;;10.57;5.63;;;13.50;47.70;;;;;;5038247;28;20439;-76
2022/06/21 00:28:41;;;;;;;11.38;5.60;;;13.40;49.50;;;;;;5056221;28;20739;-75
2022/06/21 00:31:18;;;;;;;16.67;6.07;;;13.20;51.20;;;;;;5057937;28;20435;-75
2022/06/21 00:33:44;;;;;;;10.47;5.97;;;13.30;51.70;;;;;;5038945;28;20389;-77
2022/06/21 00:36:25;;;;;;;8.80;6.22;;;13.40;50.20;;;;;;5038884;28;20389;-74
2022/06/21 00:38:52;;;;;;;14.50;6.70;;;13.20;51.60;;;;;;5054333;28;20382;-77
2022/06/21 00:41:21;;;;;;;12.45;5.97;;;13.10;54.10;;;;;;5036012;28;20455;-75
2022/06/21 00:43:50;;;;;;;9.47;5.90;;;13.30;53.20;;;;;;5053680;28;20452;-76
2022/06/21 00:46:27;;;;;;;12.77;5.72;;;13.40;51.30;;;;;;5053031;28;20379;-76
2022/06/21 00:48:54;;;;;;;8.70;6.03;;;13.50;50.50;;;;;;5069527;28;20405;-74
2022/06/21 00:51:27;;;;;;;11.33;5.87;;;13.20;52.50;;;;;;5053318;28;20791;-75
2022/06/21 00:54:02;;;;;;;12.70;6.28;;;13.00;55.60;;;;;;5053756;28;20407;-77
2022/06/21 00:56:36;;;;;;;9.57;6.13;;;12.90;56.40;;;;;;5053341;28;20377;-77
2022/06/21 00:59:27;;;;;;;12.35;6.88;;;12.90;57.70;;;;;;5052918;28;20385;-75
2022/06/21 01:01:58;;;;;;;8.93;6.03;;;12.90;58.10;;;;;;5068492;28;20442;-75
2022/06/21 01:04:34;;;;;;;8.23;6.30;;;13.10;55.50;;;;;;5053424;28;20393;-76
2022/06/21 01:07:05;;;;;;;12.15;6.85;;;13.00;55.80;;;;;;5052196;28;20419;-75
2022/06/21 01:09:45;;;;;;;14.63;5.90;;;13.00;56.70;;;;;;5052390;28;20437;-76
2022/06/21 01:12:27;;;;;;;10.73;5.50;;;13.30;52.90;;;;;;5052242;28;20401;-75
2022/06/21 01:15:13;;;;;;;11.10;5.95;;;13.40;50.70;;;;;;5054735;28;20397;-76
2022/06/21 01:17:39;;;;;;;12.70;6.20;;;13.20;51.70;;;;;;5051733;28;20397;-76
2022/06/21 01:20:09;;;;;;;9.02;6.22;;;12.90;55.50;;;;;;5054937;28;20459;-75
2022/06/21 01:22:55;;;;;;;8.48;6.00;;;12.80;56.00;;;;;;5052808;28;20397;-75
2022/06/21 01:25:39;;;;;;;8.98;6.40;;;12.60;58.60;;;;;;5061995;28;20694;-77
2022/06/21 01:28:07;;;;;;;8.02;6.55;;;12.50;60.70;;;;;;5034650;28;20421;-76
2022/06/21 01:30:34;;;;;;;10.50;6.40;;;12.70;59.90;;;;;;5047652;28;20416;-76
2022/06/21 01:33:01;;;;;;;11.13;5.97;;;12.80;57.60;;;;;;5054707;28;20910;-75
2022/06/21 01:35:29;;;;;;;15.33;6.10;;;13.00;55.30;;;;;;5059670;28;20869;-76
2022/06/21 01:37:56;;;;;;;14.85;5.88;;;13.10;55.00;;;;;;5053271;28;20454;-76
2022/06/21 01:40:29;;;;;;;9.20;5.50;;;13.10;54.00;;;;;;5033803;28;20401;-76
2022/06/21 01:42:59;;;;;;;9.20;5.95;;;13.10;54.30;;;;;;5051492;28;20397;-75
2022/06/21 01:45:32;;;;;;;11.73;6.07;;;13.00;55.20;;;;;;5051468;28;20431;-77
2022/06/21 01:48:26;;;;;;;10.57;6.32;;;13.00;55.40;;;;;;5051911;28;20953;-76
2022/06/21 01:50:56;;;;;;;14.10;6.45;;;13.00;55.10;;;;;;5046661;28;20421;-76
2022/06/21 01:53:24;;;;;;;11.18;6.45;;;13.00;54.90;;;;;;5054965;28;20547;-75
2022/06/21 01:56:07;;;;;;;11.93;6.47;;;12.90;55.90;;;;;;5027709;28;20905;-77
2022/06/21 01:58:38;;;;;;;10.52;6.35;;;12.60;57.90;;;;;;5054411;28;20397;-73
2022/06/21 02:01:23;;;;;;;12.02;7.05;;;12.40;60.80;;;;;;5055248;28;20818;-75
2022/06/21 02:03:53;;;;;;;10.63;6.60;;;12.40;61.90;;;;;;5050786;28;20401;-76
2022/06/21 02:06:22;;;;;;;11.03;6.40;;;12.70;58.50;;;;;;5060255;28;20397;-76
2022/06/21 02:08:52;;;;;;;10.82;5.95;;;12.70;57.90;;;;;;5059297;28;20817;-75
2022/06/21 02:11:29;;;;;;;13.50;6.20;;;12.70;58.30;;;;;;5056037;28;20492;-75
2022/06/21 02:16:50;;;;;;;11.82;5.65;;;12.70;56.90;;;;;;5054622;28;20401;-76
2022/06/21 02:19:41;;;;;;;11.40;6.18;;;12.60;57.70;;;;;;5054262;28;20492;-75
2022/06/21 02:22:14;;;;;;;9.10;6.23;;;12.50;59.00;;;;;;5048137;28;20469;-75
2022/06/21 02:24:40;;;;;;;12.40;6.45;;;12.50;60.00;;;;;;5048349;28;20454;-74
2022/06/21 02:27:06;;;;;;;9.55;6.65;;;12.40;60.80;;;;;;5057638;28;20400;-76
2022/06/21 02:29:33;;;;;;;11.93;6.72;;;12.30;61.70;;;;;;5057625;28;20405;-75
2022/06/21 02:31:59;;;;;;;13.18;7.03;;;12.20;62.50;;;;;;5039099;28;20455;-77
2022/06/21 02:34:33;;;;;;;11.00;6.20;;;12.20;63.10;;;;;;5056011;28;20886;-75
2022/06/21 02:37:02;;;;;;;11.48;6.20;;;12.10;63.80;;;;;;5058483;28;20413;-76
2022/06/21 02:39:29;;;;;;;12.02;6.60;;;12.10;63.70;;;;;;5058389;28;20389;-75
2022/06/21 02:42:06;;;;;;;15.73;6.70;;;11.90;66.30;;;;;;5054471;28;20758;-75
2022/06/21 02:44:41;;;;;;;10.88;6.57;;;11.80;66.30;;;;;;5046521;28;20442;-74
2022/06/21 02:47:23;;;;;;;22.17;12.93;;;11.90;66.20;;;;;;5053483;28;20401;-74
2022/06/21 02:49:58;;;;;;;10.65;7.47;;;11.90;66.00;;;;;;5048946;28;20409;-76
2022/06/21 02:52:32;;;;;;;18.35;11.13;;;11.90;66.30;;;;;;5053772;28;20394;-76
2022/06/21 02:55:06;;;;;;;13.18;7.05;;;12.00;65.60;;;;;;5055358;28;20419;-76
2022/06/21 02:57:43;;;;;;;12.73;6.40;;;12.00;64.60;;;;;;5046226;28;20489;-77
2022/06/21 03:00:13;;;;;;;12.80;7.15;;;11.90;65.60;;;;;;5023134;28;20410;-76
2022/06/21 03:02:39;;;;;;;8.13;6.38;;;11.80;67.40;;;;;;5052093;28;20409;-74
2022/06/21 03:05:13;;;;;;;12.73;6.50;;;11.60;69.00;;;;;;5057449;28;20401;-76
2022/06/21 03:07:42;;;;;;;15.80;6.73;;;11.50;70.90;;;;;;5036852;28;20390;-75
2022/06/21 03:10:18;;;;;;;10.98;6.45;;;11.40;71.90;;;;;;5060587;28;20415;-77
2022/06/21 03:12:46;;;;;;;13.52;7.20;;;11.20;75.60;;;;;;5056551;28;20396;-75
2022/06/21 03:15:12;;;;;;;11.43;6.90;;;11.10;78.10;;;;;;5042923;28;20390;-75
2022/06/21 03:18:04;;;;;;;13.95;7.15;;;11.30;76.60;;;;;;5059525;28;20389;-75
2022/06/21 03:20:32;;;;;;;10.82;6.55;;;11.30;75.10;;;;;;5037253;28;20401;-76
2022/06/21 03:22:58;;;;;;;15.23;6.80;;;11.50;73.40;;;;;;5054040;28;20811;-75
2022/06/21 03:25:28;;;;;;;12.73;6.80;;;11.50;73.50;;;;;;5036038;28;20409;-76
2022/06/21 03:27:57;;;;;;;8.87;6.10;;;11.70;71.70;;;;;;5056205;28;20531;-76
2022/06/21 03:30:31;;;;;;;10.07;6.90;;;11.60;70.30;;;;;;5058197;28;20902;-76
2022/06/21 03:32:58;;;;;;;10.52;6.40;;;11.60;71.80;;;;;;5058735;28;20393;-76
2022/06/21 03:35:26;;;;;;;9.98;6.25;;;11.50;73.90;;;;;;5034925;28;20401;-76
2022/06/21 03:37:52;;;;;;;9.68;6.40;;;11.50;74.10;;;;;;5052877;28;20428;-76
2022/06/21 03:43:19;;;;;;;13.88;7.22;;;11.30;75.70;;;;;;5053650;28;20500;-76
2022/06/21 03:45:48;;;;;;;11.48;7.10;;;11.40;74.90;;;;;;5051487;28;20408;-76
2022/06/21 03:48:16;;;;;;;12.05;6.75;;;11.50;74.00;;;;;;5052443;28;20397;-75
2022/06/21 03:50:56;;;;;;;9.13;6.00;;;11.70;72.20;;;;;;5046054;28;20437;-76
2022/06/21 03:53:35;;;;;;;8.30;5.53;;;11.80;70.60;;;;;;5052722;28;20397;-75
2022/06/21 03:56:00;;;;;;;9.88;5.93;;;11.90;68.40;;;;;;5052639;28;20389;-75
2022/06/21 03:58:55;;;;;;;8.30;5.90;;;12.20;65.80;;;;;;5055346;28;20385;-76
2022/06/21 04:01:29;;;;;;;9.40;5.45;;;12.20;66.40;;;;;;5052405;28;20954;-75
2022/06/21 04:04:20;;;;;;;13.33;5.10;;;12.50;61.80;;;;;;5034684;28;20481;-78
2022/06/21 04:06:55;;;;;;;8.63;5.32;;;12.70;59.10;;;;;;5046540;28;20480;-76
2022/06/21 04:09:28;;;;;;;9.23;5.47;;;12.80;57.20;;;;;;5052467;28;20471;-76
2022/06/21 04:12:22;;;;;;;13.23;5.70;;;12.70;58.60;;;;;;5053334;28;20404;-76
2022/06/21 04:14:55;;;;;;;11.68;5.93;;;12.40;61.70;;;;;;5053768;28;20397;-78
2022/06/21 04:17:30;;;;;;;10.60;6.32;;;12.20;66.40;;;;;;5035583;28;20404;-75
2022/06/21 04:20:06;;;;;;;12.63;6.30;;;12.20;68.40;;;;;;5052239;28;20401;-75
2022/06/21 04:22:56;;;;;;;14.60;6.60;;;12.10;69.40;;;;;;5053895;28;20482;-75
2022/06/21 04:25:37;;;;;;;15.95;6.95;;;12.10;70.50;;;;;;5054453;28;20479;-75
2022/06/21 04:28:08;;;;;;;10.23;5.53;;;12.20;69.70;;;;;;5037834;28;20405;-76
2022/06/21 04:31:07;;;;;;;13.75;6.50;;;12.20;70.20;;;;;;5054336;28;20405;-74
2022/06/21 04:33:38;;;;;;;12.38;5.85;;;12.30;70.20;;;;;;5051703;28;20432;-75
2022/06/21 04:36:36;;;;;;;13.93;6.10;;;12.40;68.30;;;;;;5033543;28;20397;-75
2022/06/21 04:39:23;;;;;;;11.40;6.03;;;12.60;65.40;;;;;;5050690;28;20413;-75
2022/06/21 04:42:07;;;;;;;10.27;5.60;;;12.70;64.60;;;;;;5046573;28;20478;-74
2022/06/21 04:44:39;;;;;;;12.60;5.20;;;13.10;60.90;;;;;;5067642;28;20397;-74
2022/06/21 04:47:21;;;;;;;12.18;5.60;;;13.30;57.40;;;;;;5051854;28;20392;-76
2022/06/21 04:50:03;;;;;;;11.85;5.70;;;13.40;56.50;;;;;;5044523;28;20902;-74
2022/06/21 04:52:40;;;;;;;13.55;6.40;;;13.20;57.00;;;;;;5054296;28;20405;-75
2022/06/21 04:55:14;;;;;;;15.45;6.40;;;13.10;58.80;;;;;;5063839;28;20400;-74
2022/06/21 04:57:39;;;;;;;10.77;6.50;;;13.20;58.30;;;;;;5060940;28;20480;-75
2022/06/21 05:00:18;;;;;;;12.63;6.03;;;13.20;58.20;;;;;;5059569;28;20865;-76
2022/06/21 05:02:49;;;;;;;17.15;6.35;;;13.30;59.00;;;;;;5055178;28;20766;-73
2022/06/21 05:05:21;;;;;;;9.70;6.40;;;13.40;56.10;;;;;;5051376;28;20397;-75
2022/06/21 05:07:58;;;;;;;16.92;7.22;;;13.40;55.60;;;;;;5051399;28;20785;-75
2022/06/21 05:10:30;;;;;;;8.10;6.28;;;13.50;55.00;;;;;;5051144;28;20836;-76
2022/06/21 05:12:59;;;;;;;12.30;6.70;;;13.70;54.90;;;;;;5051334;28;20479;-76
2022/06/21 05:15:29;;;;;;;12.20;6.35;;;13.70;53.60;;;;;;5033368;28;20397;-75
2022/06/21 05:18:00;;;;;;;12.05;6.35;;;13.70;55.00;;;;;;5051266;28;20393;-74
2022/06/21 05:20:29;;;;;;;9.93;6.50;;;13.90;53.40;;;;;;5057925;28;20485;-74
2022/06/21 05:23:01;;;;;;;14.77;7.45;;;13.90;53.40;;;;;;5060231;28;20401;-76
2022/06/21 05:25:34;;;;;;;12.20;6.50;;;13.90;53.50;;;;;;5066563;28;20479;-76
2022/06/21 05:28:37;;;;;;;11.15;6.90;;;14.00;51.80;;;;;;5058377;28;20477;-74
2022/06/21 05:31:20;;;;;;;13.15;7.63;;;14.10;51.50;;;;;;5058394;28;20783;-75
2022/06/21 05:33:53;;;;;;;14.98;7.10;;;14.20;50.20;;;;;;5059047;28;20467;-75
2022/06/21 05:36:35;;;;;;;15.50;7.90;;;14.40;48.20;;;;;;5042069;28;20397;-74
2022/06/21 05:39:08;;;;;;;21.65;8.13;;;14.50;48.20;;;;;;5033333;28;20436;-76
2022/06/21 05:41:41;;;;;;;15.68;8.50;;;14.70;47.00;;;;;;5056709;28;20436;-74
2022/06/21 05:44:13;;;;;;;19.90;7.50;;;14.70;46.50;;;;;;5053680;28;20715;-74
2022/06/21 05:46:46;;;;;;;15.73;7.60;;;14.80;46.20;;;;;;5052370;28;20544;-75
2022/06/21 05:49:31;;;;;;;20.27;8.00;;;14.90;47.20;;;;;;5060020;28;20411;-76
2022/06/21 05:52:00;;;;;;;14.45;7.80;;;14.90;45.10;;;;;;5028368;28;20429;-75
2022/06/21 05:54:38;;;;;;;17.48;7.05;;;15.00;43.30;;;;;;5052511;28;20395;-75
2022/06/21 05:57:07;;;;;;;13.27;7.18;;;15.10;43.20;;;;;;5052597;28;20385;-74
2022/06/21 05:59:33;;;;;;;15.38;6.60;;;15.30;42.30;;;;;;5051935;28;21135;-75
2022/06/21 06:02:33;;;;;;;17.60;6.60;;;15.40;41.20;;;;;;5052382;28;20432;-76
2022/06/21 06:05:11;;;;;;;9.60;5.38;;;15.40;40.60;;;;;;5047630;28;20809;-75
2022/06/21 06:07:44;;;;;;;16.63;6.72;;;15.50;40.50;;;;;;5034400;28;20819;-73
2022/06/21 06:10:11;;;;;;;7.90;5.43;;;15.60;40.10;;;;;;5052728;28;20739;-75
2022/06/21 06:12:42;;;;;;;14.30;5.90;;;15.70;38.60;;;;;;5050620;28;20523;-75
2022/06/21 06:15:11;;;;;;;12.20;5.90;;;15.90;37.80;;;;;;5051976;28;20389;-76
2022/06/21 06:18:06;;;;;;;13.60;6.40;;;15.80;38.50;;;;;;5050971;28;20394;-77
2022/06/21 06:20:36;;;;;;;15.88;5.40;;;15.80;38.10;;;;;;5050973;28;20871;-74
2022/06/21 06:23:24;;;;;;;21.92;6.05;;;15.90;37.10;;;;;;5051109;28;20412;-75
2022/06/21 06:25:54;;;;;;;12.90;5.63;;;15.90;37.20;;;;;;5050465;28;20393;-76
2022/06/21 06:28:38;;;;;;;11.63;5.90;;;16.00;36.00;;;;;;5051092;28;20405;-72
2022/06/21 06:31:18;;;;;;;11.95;5.60;;;16.10;36.00;;;;;;5045404;28;20420;-75
2022/06/21 06:33:55;;;;;;;14.67;6.00;;;16.20;36.10;;;;;;5051041;28;20433;-76
2022/06/21 06:36:24;;;;;;;9.68;5.20;;;16.40;35.50;;;;;;5051245;28;20409;-74
2022/06/21 06:38:50;;;;;;;20.67;6.00;;;16.50;34.70;;;;;;5050233;28;20527;-73
2022/06/21 06:41:37;;;;;;;14.90;6.00;;;16.70;34.20;;;;;;5049808;28;20961;-75
2022/06/21 06:44:09;;;;;;;12.15;5.93;;;16.80;34.10;;;;;;5047531;28;20462;-75
2022/06/21 06:46:44;;;;;;;10.73;5.50;;;17.00;32.10;;;;;;5053698;28;20396;-74
2022/06/21 06:49:35;;;;;;;12.07;5.03;;;17.00;32.90;;;;;;5054868;28;20500;-75
2022/06/21 06:52:24;;;;;;;9.27;4.60;;;17.10;30.70;;;;;;5048005;28;20447;-74
2022/06/21 06:55:16;;;;;;;12.18;4.10;;;17.30;30.00;;;;;;5052923;28;20896;-74
2022/06/21 06:57:51;;;;;;;10.23;4.90;;;17.20;28.90;;;;;;5053743;28;20414;-73
2022/06/21 07:00:23;;;;;;;8.02;4.30;;;17.20;30.20;;;;;;5053963;28;20947;-73
2022/06/21 07:02:56;;;;;;;11.30;4.40;;;17.30;29.50;;;;;;5052660;28;20451;-75
2022/06/21 07:05:26;;;;;;;10.18;4.75;;;17.30;28.60;;;;;;5035871;28;20401;-75
2022/06/21 07:07:56;;;;;;;7.95;4.50;;;17.20;27.40;;;;;;5055759;28;20404;-75
2022/06/21 07:10:27;;;;;;;10.90;4.60;;;17.40;28.30;;;;;;5053374;28;20435;-75
2022/06/21 07:12:55;;;;;;;10.33;4.20;;;17.50;27.80;;;;;;5055717;28;20393;-74
2022/06/21 07:15:39;;;;;;;8.05;4.00;;;17.80;26.20;;;;;;5036432;28;20404;-75
2022/06/21 07:18:35;;;;;;;6.78;4.00;;;17.90;26.40;;;;;;5047367;28;20397;-75
2022/06/21 07:21:01;;;;;;;9.38;4.18;;;18.00;25.30;;;;;;5031485;28;20408;-75
2022/06/21 07:23:29;;;;;;;7.47;4.40;;;18.10;25.70;;;;;;5053961;28;20881;-75
2022/06/21 07:26:15;;;;;;;9.05;4.00;;;18.10;25.90;;;;;;5053310;28;20389;-75
2022/06/21 07:28:52;;;;;;;10.83;4.43;;;18.00;26.50;;;;;;5052786;28;20405;-75
2022/06/21 07:31:35;;;;;;;14.05;4.40;;;18.20;26.30;;;;;;5052697;28;20432;-75
2022/06/21 07:34:12;;;;;;;7.22;4.00;;;18.30;25.50;;;;;;5063974;28;20894;-75
2022/06/21 07:37:10;;;;;;;7.18;3.60;;;18.70;24.10;;;;;;5059739;28;20447;-75
2022/06/21 07:39:44;;;;;;;6.47;3.53;;;18.70;21.70;;;;;;5052186;28;20413;-76
2022/06/21 07:42:29;;;;;;;8.65;3.85;;;18.70;20.50;;;;;;5031835;28;20476;-75
2022/06/21 07:45:04;;;;;;;6.55;3.88;;;18.90;20.40;;;;;;5053481;28;20838;-75
2022/06/21 07:47:48;;;;;;;10.63;4.57;;;19.10;21.20;;;;;;5062476;28;20482;-74
2022/06/21 07:50:30;;;;;;;4.95;2.80;;;19.30;20.70;;;;;;5053344;28;20893;-76
2022/06/21 07:53:02;;;;;;;11.70;3.90;;;19.30;19.30;;;;;;5057040;28;20411;-76
2022/06/21 07:55:34;;;;;;;9.50;3.50;;;19.60;19.30;;;;;;5057430;28;20389;-74
2022/06/21 07:58:25;;;;;;;10.05;3.97;;;19.70;17.40;;;;;;5046017;28;20766;-75
2022/06/21 08:06:41;;;;;;;6.13;3.50;;;19.50;19.00;;;;;;5054681;28;20863;-74
2022/06/21 08:09:24;;;;;;;7.03;4.05;;;19.60;19.40;;;;;;5046491;28;20413;-75
2022/06/21 08:11:52;;;;;;;9.65;4.43;;;19.40;18.20;;;;;;5033883;28;20389;-74
2022/06/21 08:14:18;;;;;;;10.90;4.18;;;19.50;18.50;;;;;;5051730;28;20386;-74
2022/06/21 08:16:52;;;;;;;10.37;3.90;;;19.50;18.30;;;;;;5052284;28;20467;-75
2022/06/21 08:19:21;;;;;;;9.35;4.20;;;19.70;17.80;;;;;;5051167;28;20393;-77
2022/06/21 08:21:55;;;;;;;7.70;4.00;;;20.00;17.20;;;;;;5052708;28;20480;-75
2022/06/21 08:24:37;;;;;;;9.50;4.10;;;20.20;17.00;;;;;;5048688;28;20488;-76
2022/06/21 08:27:09;;;;;;;8.80;4.20;;;20.50;17.80;;;;;;5046964;28;20397;-75
2022/06/21 08:30:01;;;;;;;8.38;4.10;;;20.60;17.40;;;;;;5050548;28;20500;-75
2022/06/21 08:32:37;;;;;;;6.10;3.90;;;20.60;16.90;;;;;;5051791;28;20935;-76
2022/06/21 08:35:26;;;;;;;9.90;4.30;;;20.50;17.60;;;;;;5051613;28;20397;-77
2022/06/21 08:38:01;;;;;;;10.77;4.40;;;20.50;17.20;;;;;;5051149;28;20400;-75
2022/06/21 08:40:41;;;;;;;9.95;4.35;;;20.30;16.70;;;;;;5052074;28;20486;-75
2022/06/21 08:43:19;;;;;;;6.35;4.13;;;20.30;17.00;;;;;;5045169;28;20393;-76
2022/06/21 08:46:07;;;;;;;11.05;4.70;;;20.40;18.80;;;;;;5033296;28;20411;-77
2022/06/21 08:48:36;;;;;;;7.57;4.20;;;20.50;17.50;;;;;;5049749;28;20882;-76
2022/06/21 08:51:23;;;;;;;9.55;4.90;;;20.60;17.20;;;;;;5051373;28;20454;-74
2022/06/21 08:54:25;;;;;;;10.10;3.97;;;20.20;16.70;;;;;;5051188;28;20401;-74
2022/06/21 08:57:30;;;;;;;5.82;3.60;;;20.20;16.70;;;;;;5051562;28;20397;-76
2022/06/21 09:00:13;;;;;;;12.48;4.60;;;20.80;16.20;;;;;;5058450;28;20839;-74
2022/06/21 09:03:11;;;;;;;7.43;4.18;;;21.40;16.10;;;;;;5056183;28;20465;-75
2022/06/21 09:05:39;;;;;;;8.15;4.32;;;21.50;15.70;;;;;;5054663;28;20421;-74
2022/06/21 09:08:29;;;;;;;7.38;4.38;;;21.70;14.60;;;;;;5051668;28;20432;-73
2022/06/21 09:10:57;;;;;;;7.18;4.30;;;21.90;14.10;;;;;;5054133;28;20488;-75
2022/06/21 09:13:41;;;;;;;7.83;4.17;;;22.00;14.50;;;;;;5054751;28;20484;-74
2022/06/21 09:16:20;;;;;;;7.10;4.20;;;21.90;13.70;;;;;;5055727;28;20804;-74
2022/06/21 09:19:10;;;;;;;6.93;4.10;;;22.00;14.20;;;;;;5055457;28;20886;-76
2022/06/21 09:21:57;;;;;;;10.68;4.90;;;21.90;13.30;;;;;;5053401;28;20393;-74
2022/06/21 09:24:22;;;;;;;6.85;4.10;;;22.00;13.70;;;;;;5049464;28;20414;-74
2022/06/21 09:27:14;;;;;;;10.93;3.83;;;22.00;13.40;;;;;;5050649;28;20397;-74
2022/06/21 09:30:09;;;;;;;9.40;4.30;;;22.30;12.80;;;;;;5024419;28;20721;-77
2022/06/21 09:32:52;;;;;;;7.10;4.43;;;22.60;12.70;;;;;;5051512;28;20397;-75
2022/06/21 09:35:17;;;;;;;6.57;4.30;;;23.00;12.60;;;;;;5052806;28;20428;-76
2022/06/21 09:37:46;;;;;;;7.53;3.67;;;23.00;11.80;;;;;;5050935;28;20477;-73
2022/06/21 09:40:29;;;;;;;6.65;4.07;;;23.00;11.80;;;;;;5051715;28;20412;-74
2022/06/21 09:43:04;;;;;;;6.18;3.40;;;23.10;12.80;;;;;;5052845;28;20401;-74
2022/06/21 09:45:58;;;;;;;11.13;3.10;;;23.30;11.50;;;;;;5053701;28;20412;-75
2022/06/21 09:48:28;;;;;;;5.50;3.60;;;23.10;11.50;;;;;;5046983;28;20404;-75
2022/06/21 09:51:25;;;;;;;8.45;2.95;;;23.40;10.60;;;;;;5049667;28;20409;-73
2022/06/21 09:53:59;;;;;;;5.70;3.30;;;23.40;10.90;;;;;;5038578;28;20459;-76
2022/06/21 09:56:39;;;;;;;4.22;3.20;;;23.30;10.60;;;;;;5052984;28;20405;-74
2022/06/21 09:59:14;;;;;;;7.03;3.10;;;23.10;10.70;;;;;;5051257;28;20397;-74
2022/06/21 10:02:08;;;;;;;6.70;2.63;;;23.10;10.50;;;;;;5049994;28;20386;-74
2022/06/21 10:04:49;;;;;;;5.60;2.90;;;23.50;10.30;;;;;;5049878;28;20390;-75
2022/06/21 10:07:38;;;;;;;7.63;3.00;;;23.40;10.10;;;;;;5045686;28;20393;-74
2022/06/21 10:10:35;;;;;;;10.65;3.55;;;23.30;10.20;;;;;;5025387;28;20420;-75
2022/06/21 10:13:26;;;;;;;7.88;3.15;;;23.40;10.50;;;;;;5052491;28;20436;-74
2022/06/21 10:16:07;;;;;;;6.53;3.00;;;23.30;11.10;;;;;;5064565;28;20405;-75
2022/06/21 10:19:00;;;;;;;4.25;2.70;;;23.20;10.60;;;;;;5052942;28;20731;-73
2022/06/21 10:21:32;;;;;;;6.03;2.65;;;23.30;10.00;;;;;;5053867;28;20429;-76
2022/06/21 10:24:12;;;;;;;3.87;2.77;;;23.30;10.20;;;;;;5053784;28;20425;-74
2022/06/21 10:27:15;;;;;;;5.70;2.80;;;24.00;11.10;;;;;;5054217;28;20500;-75
2022/06/21 10:30:05;;;;;;;9.70;2.80;;;24.30;9.00;;;;;;5053491;28;20463;-75
2022/06/21 10:32:43;;;;;;;9.27;3.28;;;24.30;8.80;;;;;;5050136;28;20475;-74
2022/06/21 10:35:39;;;;;;;4.43;2.78;;;24.40;8.10;;;;;;5049984;28;20416;-75
2022/06/21 10:38:32;;;;;;;4.90;2.85;;;24.20;9.40;;;;;;5065684;28;20389;-75
2022/06/21 10:41:03;;;;;;;7.22;3.10;;;24.10;9.80;;;;;;5053148;28;20442;-73
2022/06/21 10:43:41;;;;;;;5.72;3.30;;;23.90;8.50;;;;;;5054229;28;20451;-74
2022/06/21 10:46:21;;;;;;;5.28;3.30;;;24.10;8.90;;;;;;5053762;28;20908;-73
2022/06/21 10:49:08;;;;;;;5.43;2.85;;;24.40;7.50;;;;;;5053497;28;20393;-74
2022/06/21 10:51:58;;;;;;;7.25;3.30;;;24.70;7.80;;;;;;5053755;28;20447;-74
2022/06/21 10:54:59;;;;;;;6.67;3.10;;;24.80;8.80;;;;;;5052180;28;20459;-74
2022/06/21 10:57:51;;;;;;;3.90;2.60;;;24.90;9.40;;;;;;5054073;28;20749;-76
2022/06/21 11:03:32;;;;;;;5.40;3.00;;;25.50;6.40;;;;;;5053490;28;20432;-74
2022/06/21 11:06:21;;;;;;;4.57;3.00;;;25.10;7.80;;;;;;5053912;28;20553;-75
2022/06/21 11:09:25;;;;;;;4.57;3.00;;;25.70;6.30;;;;;;5055059;28;20401;-76
2022/06/21 11:11:59;;;;;;;4.65;3.10;;;25.80;5.60;;;;;;5037287;28;20405;-74
2022/06/21 11:14:56;;;;;;;7.53;3.45;;;25.70;6.30;;;;;;5055400;28;20405;-74
2022/06/21 11:17:31;;;;;;;6.83;3.80;;;25.70;7.00;;;;;;5050130;28;20729;-75
2022/06/21 11:20:02;;;;;;;7.28;3.50;;;25.50;7.30;;;;;;5056895;28;20455;-74
2022/06/21 11:22:45;;;;;;;8.50;3.17;;;25.40;7.80;;;;;;5055284;28;20397;-73
2022/06/21 11:25:29;;;;;;;4.80;2.70;;;25.00;8.80;;;;;;5055862;28;20746;-75
2022/06/21 11:27:55;;;;;;;6.53;3.40;;;25.00;8.20;;;;;;5056077;28;20408;-75
2022/06/21 11:30:23;;;;;;;7.80;3.10;;;25.00;7.60;;;;;;5039569;28;20405;-73
2022/06/21 11:33:09;;;;;;;6.68;3.40;;;24.80;7.90;;;;;;5057192;28;20397;-74
2022/06/21 11:35:50;;;;;;;6.20;3.28;;;24.20;8.40;;;;;;5058246;28;20447;-75
2022/06/21 11:38:50;;;;;;;8.23;3.45;;;24.20;8.30;;;;;;5032911;28;20458;-76
2022/06/21 11:44:45;;;;;;;5.40;2.78;;;24.20;8.70;;;;;;5058006;28;20451;-76
2022/06/21 11:47:19;;;;;;;8.93;3.10;;;24.50;8.40;;;;;;4999027;28;20393;-75
2022/06/21 11:50:14;;;;;;;8.75;3.25;;;24.80;7.50;;;;;;5056357;28;20421;-74
2022/06/21 11:53:21;;;;;;;3.00;2.60;;;25.00;8.20;;;;;;5051223;28;20407;-74
2022/06/21 11:56:03;;;;;;;8.60;3.40;;;25.20;7.70;;;;;;5020058;28;20386;-74
2022/06/21 11:58:42;;;;;;;6.70;3.10;;;25.50;8.00;;;;;;5054639;28;20873;-73
2022/06/21 12:01:21;;;;;;;5.63;3.10;;;25.90;7.60;;;;;;5051860;28;20398;-74
2022/06/21 12:04:04;;;;;;;7.78;3.67;;;25.80;7.00;;;;;;5053790;28;20531;-74
2022/06/21 12:06:51;;;;;;;5.45;3.33;;;25.90;6.60;;;;;;5048902;28;20742;-74
2022/06/21 12:10:00;;;;;;;7.15;2.80;;;25.80;7.00;;;;;;5047479;28;20421;-75
2022/06/21 12:12:55;;;;;;;8.95;3.38;;;26.10;7.50;;;;;;4969439;28;20408;-72
2022/06/21 12:15:35;;;;;;;5.07;3.10;;;26.20;6.80;;;;;;4971027;28;20416;-74
2022/06/21 12:18:09;;;;;;;5.05;3.70;;;25.80;7.40;;;;;;5029378;28;20398;-77
2022/06/21 12:20:45;;;;;;;5.85;3.75;;;25.80;6.50;;;;;;5040027;28;20409;-75
2022/06/21 12:23:25;;;;;;;7.90;3.10;;;25.90;6.10;;;;;;5051918;28;20484;-75
2022/06/21 12:25:52;;;;;;;5.53;3.30;;;26.00;8.30;;;;;;5051395;28;20906;-74
2022/06/21 12:28:21;;;;;;;5.57;3.42;;;26.00;7.40;;;;;;5047559;28;20402;-74
2022/06/21 12:30:47;;;;;;;13.48;4.13;;;25.80;6.50;;;;;;5050301;28;20887;-74
2022/06/21 12:33:16;;;;;;;6.43;3.40;;;25.60;6.50;;;;;;5053164;28;20773;-75
2022/06/21 12:35:51;;;;;;;6.55;3.53;;;25.70;6.70;;;;;;5035454;28;20454;-75
2022/06/21 12:38:23;;;;;;;10.30;4.20;;;25.70;6.80;;;;;;5054399;28;20466;-74
2022/06/21 12:41:04;;;;;;;6.50;3.40;;;25.70;6.80;;;;;;5054504;28;20410;-73
2022/06/21 12:43:51;;;;;;;5.70;3.70;;;25.50;7.10;;;;;;5051184;28;20480;-74
2022/06/21 12:46:24;;;;;;;6.88;3.55;;;25.80;6.80;;;;;;5052343;28;20411;-73
2022/06/21 12:49:14;;;;;;;6.10;3.40;;;26.10;6.90;;;;;;5052778;28;20443;-73
2022/06/21 12:51:56;;;;;;;5.95;3.60;;;25.80;6.30;;;;;;5051252;28;20442;-73
2022/06/21 12:54:30;;;;;;;5.32;3.42;;;26.10;7.20;;;;;;5048650;28;20402;-71
2022/06/21 12:57:32;;;;;;;5.07;3.20;;;25.70;6.70;;;;;;5055753;28;20403;-73
2022/06/21 13:00:04;;;;;;;5.47;3.65;;;26.00;6.50;;;;;;5054011;28;20610;-74
2022/06/21 13:03:01;;;;;;;6.10;3.40;;;25.80;6.30;;;;;;5032153;28;20579;-73
2022/06/21 13:05:45;;;;;;;6.32;3.47;;;26.50;6.90;;;;;;5050559;28;20394;-73
2022/06/21 13:08:25;;;;;;;8.00;3.50;;;27.20;5.70;;;;;;5053579;28;20976;-74
2022/06/21 13:11:26;;;;;;;6.22;3.47;;;27.50;4.00;;;;;;5036808;28;20451;-73
2022/06/21 13:14:04;;;;;;;4.80;3.50;;;27.90;3.50;;;;;;5042411;28;20402;-74
2022/06/21 13:16:49;;;;;;;4.67;3.30;;;27.60;4.40;;;;;;5054390;28;20389;-72
2022/06/21 13:19:45;;;;;;;4.00;3.40;;;27.70;5.30;;;;;;5064552;28;20405;-74
2022/06/21 13:22:22;;;;;;;5.32;3.50;;;28.00;4.80;;;;;;5058368;28;20420;-75
2022/06/21 13:25:17;;;;;;;4.53;3.20;;;28.60;3.30;;;;;;5058107;28;20471;-72
2022/06/21 13:27:51;;;;;;;5.35;3.50;;;29.00;2.50;;;;;;5057830;28;20453;-72
2022/06/21 13:30:30;;;;;;;7.15;3.90;;;29.00;2.00;;;;;;5059352;28;20413;-72
2022/06/21 13:33:16;;;;;;;7.53;3.22;;;28.50;2.80;;;;;;5060527;28;20467;-73
2022/06/21 13:36:23;;;;;;;6.65;3.60;;;28.00;3.60;;;;;;5055232;28;20507;-73
2022/06/21 13:38:52;;;;;;;3.93;3.20;;;27.40;4.00;;;;;;5011163;28;20398;-71
2022/06/21 13:45:11;;;;;;;4.50;2.83;;;27.00;5.20;;;;;;5048788;28;20396;-71
2022/06/21 13:47:43;;;;;;;8.53;3.20;;;26.90;5.70;;;;;;5023857;28;20413;-72
2022/06/21 13:50:23;;;;;;;5.03;3.40;;;27.50;5.90;;;;;;5055044;28;20465;-72
2022/06/21 13:52:48;;;;;;;3.70;3.00;;;27.80;4.40;;;;;;5054445;28;20393;-71
2022/06/21 13:55:32;;;;;;;4.67;3.80;;;27.80;3.10;;;;;;5057198;28;20389;-72
2022/06/21 13:58:37;;;;;;;6.07;3.45;;;27.20;3.60;;;;;;5055274;28;20400;-71
2022/06/21 14:01:28;;;;;;;6.90;3.10;;;27.10;4.70;;;;;;5054627;28;20524;-72
2022/06/21 14:04:15;;;;;;;5.70;3.10;;;27.20;5.40;;;;;;5035524;28;20467;-71